Time;durP1;ratioP1;P1;durP2;ratioP2;P2;SDS_P1;SDS_P2;PMS_P1;PMS_P2;Temp;Humidity;BMP_temperature;BMP_pressure;BME280_temperature;BME280_humidity;BME280_pressure;Samples;Min_cycle;Max_cycle;Signal;HPM_P1;HPM_P2
2022/07/14 00:01:38;;;;;;;;;;;;;;;;;;5018730;28;19967;-83
2022/07/14 00:04:03;;;;;;;;;;;;;;;;;;5021197;28;19914;-83
2022/07/14 00:06:29;;;;;;;;;;;;;;;;;;5019530;28;19986;-84
2022/07/14 00:08:54;;;;;;;;;;;;;;;;;;5022792;28;19917;-83
2022/07/14 00:11:19;;;;;;;;;;;;;;;;;;5022541;28;19922;-83
2022/07/14 00:13:44;;;;;;;;;;;;;;;;;;5022944;28;20448;-83
2022/07/14 00:16:09;;;;;;;;;;;;;;;;;;5023120;28;19917;-83
2022/07/14 00:18:37;;;;;;;;;;;;;;;;;;5024679;28;20320;-83
2022/07/14 00:21:02;;;;;;;;;;;;;;;;;;5023152;28;20386;-83
2022/07/14 00:23:27;;;;;;;;;;;;;;;;;;5017842;28;19914;-83
2022/07/14 00:25:52;;;;;;;;;;;;;;;;;;5017546;28;19917;-83
2022/07/14 00:28:17;;;;;;;;;;;;;;;;;;5019731;28;19920;-83
2022/07/14 00:30:45;;;;;;;;;;;;;;;;;;5019392;28;19921;-83
2022/07/14 00:33:10;;;;;;;;;;;;;;;;;;5023076;28;19932;-83
2022/07/14 00:35:35;;;;;;;;;;;;;;;;;;5019362;28;19922;-84
2022/07/14 00:38:03;;;;;;;;;;;;;;;;;;5018793;28;20008;-83
2022/07/14 00:40:29;;;;;;;;;;;;;;;;;;5021199;28;19925;-83
2022/07/14 00:42:54;;;;;;;;;;;;;;;;;;5021676;28;19920;-83
2022/07/14 00:45:19;;;;;;;;;;;;;;;;;;5019613;28;19918;-83
2022/07/14 00:47:46;;;;;;;;;;;;;;;;;;5021263;28;19917;-83
2022/07/14 00:50:11;;;;;;;;;;;;;;;;;;5020773;28;20422;-83
2022/07/14 00:52:36;;;;;;;;;;;;;;;;;;5001404;28;19948;-83
2022/07/14 00:55:01;;;;;;;;;;;;;;;;;;5021753;28;19976;-83
2022/07/14 00:57:27;;;;;;;;;;;;;;;;;;5016137;28;20019;-83
2022/07/14 00:59:52;;;;;;;;;;;;;;;;;;5020533;28;20118;-83
2022/07/14 01:02:20;;;;;;;;;;;;;;;;;;5020254;28;19925;-83
2022/07/14 01:04:45;;;;;;;;;;;;;;;;;;5017282;28;20066;-83
2022/07/14 01:07:10;;;;;;;;;;;;;;;;;;5024652;28;20004;-83
2022/07/14 01:09:36;;;;;;;;;;;;;;;;;;5019576;28;19917;-83
2022/07/14 01:12:01;;;;;;;;;;;;;;;;;;5022215;28;19921;-83
2022/07/14 01:14:26;;;;;;;;;;;;;;;;;;5021421;28;19917;-83
2022/07/14 01:16:51;;;;;;;;;;;;;;;;;;5022259;28;20347;-83
2022/07/14 01:19:16;;;;;;;;;;;;;;;;;;5023944;28;19917;-83
2022/07/14 01:21:42;;;;;;;;;;;;;;;;;;5020937;28;20264;-83
2022/07/14 01:24:07;;;;;;;;;;;;;;;;;;5021662;28;19992;-83
2022/07/14 01:26:33;;;;;;;;;;;;;;;;;;5023821;28;19920;-83
2022/07/14 01:28:58;;;;;;;;;;;;;;;;;;5020630;28;19958;-83
2022/07/14 01:31:23;;;;;;;;;;;;;;;;;;5022053;28;20399;-83
2022/07/14 01:33:49;;;;;;;;;;;;;;;;;;5023278;28;19920;-83
2022/07/14 01:36:14;;;;;;;;;;;;;;;;;;5025264;28;19951;-83
2022/07/14 01:38:39;;;;;;;;;;;;;;;;;;5022755;28;19921;-83
2022/07/14 01:41:04;;;;;;;;;;;;;;;;;;5021052;28;20072;-83
2022/07/14 01:43:29;;;;;;;;;;;;;;;;;;5024684;28;19917;-83
2022/07/14 01:45:54;;;;;;;;;;;;;;;;;;5005047;28;20051;-83
2022/07/14 01:48:19;;;;;;;;;;;;;;;;;;5027628;28;19913;-83
2022/07/14 01:50:45;;;;;;;;;;;;;;;;;;5024842;28;19913;-83
2022/07/14 01:53:10;;;;;;;;;;;;;;;;;;5000414;28;19914;-83
2022/07/14 01:55:35;;;;;;;;;;;;;;;;;;5023276;28;19917;-83
2022/07/14 01:58:00;;;;;;;;;;;;;;;;;;5023054;28;19928;-83
2022/07/14 02:00:25;;;;;;;;;;;;;;;;;;5019913;28;19918;-82
2022/07/14 02:02:51;;;;;;;;;;;;;;;;;;5022653;28;19971;-83
2022/07/14 02:05:16;;;;;;;;;;;;;;;;;;5007822;28;19914;-82
2022/07/14 02:07:41;;;;;;;;;;;;;;;;;;5024951;28;20000;-83
2022/07/14 02:12:50;;;;;;;;;;;;;;;;;;5024995;28;20072;-83
2022/07/14 02:15:15;;;;;;;;;;;;;;;;;;5024783;28;20166;-83
2022/07/14 02:17:40;;;;;;;;;;;;;;;;;;5023196;28;19921;-83
2022/07/14 02:20:05;;;;;;;;;;;;;;;;;;5026196;28;20027;-83
2022/07/14 02:22:31;;;;;;;;;;;;;;;;;;5024233;28;20328;-83
2022/07/14 02:24:56;;;;;;;;;;;;;;;;;;5021600;28;19917;-83
2022/07/14 02:27:21;;;;;;;;;;;;;;;;;;5020254;28;20087;-83
2022/07/14 02:29:47;;;;;;;;;;;;;;;;;;5021346;28;19921;-83
2022/07/14 02:32:12;;;;;;;;;;;;;;;;;;5019634;28;19924;-83
2022/07/14 02:34:37;;;;;;;;;;;;;;;;;;5022332;28;19913;-83
2022/07/14 02:37:02;;;;;;;;;;;;;;;;;;5024515;28;19956;-83
2022/07/14 02:39:27;;;;;;;;;;;;;;;;;;5005654;28;20634;-83
2022/07/14 02:41:52;;;;;;;;;;;;;;;;;;5020629;28;20064;-83
2022/07/14 02:44:18;;;;;;;;;;;;;;;;;;5022355;28;20356;-83
2022/07/14 02:46:43;;;;;;;;;;;;;;;;;;5023887;28;21359;-83
2022/07/14 02:49:08;;;;;;;;;;;;;;;;;;5022417;28;19952;-83
2022/07/14 02:51:33;;;;;;;;;;;;;;;;;;5017260;28;20016;-83
2022/07/14 02:53:58;;;;;;;;;;;;;;;;;;5022235;28;20272;-83
2022/07/14 02:56:24;;;;;;;;;;;;;;;;;;5019619;28;19939;-83
2022/07/14 02:58:49;;;;;;;;;;;;;;;;;;5013047;28;19917;-83
2022/07/14 03:01:14;;;;;;;;;;;;;;;;;;5016105;28;20318;-83
2022/07/14 03:03:39;;;;;;;;;;;;;;;;;;5023526;28;19920;-83
2022/07/14 03:06:04;;;;;;;;;;;;;;;;;;5021560;28;20319;-83
2022/07/14 03:08:30;;;;;;;;;;;;;;;;;;5020150;28;19928;-83
2022/07/14 03:10:55;;;;;;;;;;;;;;;;;;5024643;28;19913;-83
2022/07/14 03:13:20;;;;;;;;;;;;;;;;;;5024340;28;19910;-82
2022/07/14 03:15:45;;;;;;;;;;;;;;;;;;5020446;28;20359;-82
2022/07/14 03:18:10;;;;;;;;;;;;;;;;;;5020833;28;19910;-82
2022/07/14 03:20:36;;;;;;;;;;;;;;;;;;5025517;28;20020;-82
2022/07/14 03:23:01;;;;;;;;;;;;;;;;;;5020308;28;19921;-82
2022/07/14 03:25:26;;;;;;;;;;;;;;;;;;5025142;28;19928;-82
2022/07/14 03:27:51;;;;;;;;;;;;;;;;;;5024498;28;19925;-83
2022/07/14 03:30:16;;;;;;;;;;;;;;;;;;5018175;28;19913;-82
2022/07/14 03:32:41;;;;;;;;;;;;;;;;;;5019102;28;19913;-82
2022/07/14 03:35:07;;;;;;;;;;;;;;;;;;5025367;28;20347;-82
2022/07/14 03:37:32;;;;;;;;;;;;;;;;;;5025440;28;19962;-83
2022/07/14 03:39:57;;;;;;;;;;;;;;;;;;5023920;28;19921;-83
2022/07/14 03:42:23;;;;;;;;;;;;;;;;;;5022950;28;19921;-83
2022/07/14 03:44:48;;;;;;;;;;;;;;;;;;5021017;28;19917;-82
2022/07/14 03:47:13;;;;;;;;;;;;;;;;;;5020525;28;19967;-83
2022/07/14 03:49:38;;;;;;;;;;;;;;;;;;5019321;28;19914;-83
2022/07/14 03:52:04;;;;;;;;;;;;;;;;;;5023843;28;20367;-82
2022/07/14 03:54:30;;;;;;;;;;;;;;;;;;5024955;28;19996;-83
2022/07/14 03:56:55;;;;;;;;;;;;;;;;;;5022655;28;19928;-83
2022/07/14 03:59:20;;;;;;;;;;;;;;;;;;5021304;28;19925;-83
2022/07/14 04:01:45;;;;;;;;;;;;;;;;;;5021512;28;20450;-83
2022/07/14 04:04:10;;;;;;;;;;;;;;;;;;5023646;28;19924;-82
2022/07/14 04:06:35;;;;;;;;;;;;;;;;;;5020515;28;20366;-83
2022/07/14 04:09:01;;;;;;;;;;;;;;;;;;5023574;28;20000;-83
2022/07/14 04:11:26;;;;;;;;;;;;;;;;;;5023455;28;19941;-82
2022/07/14 04:13:52;;;;;;;;;;;;;;;;;;5020585;28;20283;-82
2022/07/14 04:16:17;;;;;;;;;;;;;;;;;;5019063;28;19913;-83
2022/07/14 04:18:42;;;;;;;;;;;;;;;;;;5023504;28;19913;-84
2022/07/14 04:21:07;;;;;;;;;;;;;;;;;;5023073;28;19917;-83
2022/07/14 04:23:32;;;;;;;;;;;;;;;;;;5025901;28;20008;-81
2022/07/14 04:25:58;;;;;;;;;;;;;;;;;;5021536;28;20058;-82
2022/07/14 04:28:23;;;;;;;;;;;;;;;;;;5022242;28;19921;-82
2022/07/14 04:30:48;;;;;;;;;;;;;;;;;;5023204;28;19922;-82
2022/07/14 04:33:13;;;;;;;;;;;;;;;;;;5022403;28;19967;-82
2022/07/14 04:35:38;;;;;;;;;;;;;;;;;;5039268;23;19984;-84
2022/07/14 04:38:04;;;;;;;;;;;;;;;;;;5026069;28;19913;-84
2022/07/14 04:40:29;;;;;;;;;;;;;;;;;;5025149;28;20371;-83
2022/07/14 04:42:54;;;;;;;;;;;;;;;;;;5020074;28;19928;-84
2022/07/14 04:45:20;;;;;;;;;;;;;;;;;;5020800;28;19921;-84
2022/07/14 04:47:45;;;;;;;;;;;;;;;;;;5016633;28;20413;-84
2022/07/14 04:52:54;;;;;;;;;;;;;;;;;;5020811;28;20297;-84
2022/07/14 04:55:19;;;;;;;;;;;;;;;;;;5022362;28;19913;-83
2022/07/14 04:57:44;;;;;;;;;;;;;;;;;;5024844;28;19916;-85
2022/07/14 05:00:10;;;;;;;;;;;;;;;;;;5027409;28;19963;-84
2022/07/14 05:02:35;;;;;;;;;;;;;;;;;;5019328;28;19924;-84
2022/07/14 05:05:00;;;;;;;;;;;;;;;;;;5024585;28;20423;-83
2022/07/14 05:07:25;;;;;;;;;;;;;;;;;;5023584;28;19916;-83
2022/07/14 05:09:50;;;;;;;;;;;;;;;;;;5023438;28;19944;-83
2022/07/14 05:12:17;;;;;;;;;;;;;;;;;;5019572;28;20337;-86
2022/07/14 05:14:42;;;;;;;;;;;;;;;;;;5017437;28;19917;-83
2022/07/14 05:17:08;;;;;;;;;;;;;;;;;;5020427;28;20515;-84
2022/07/14 05:19:33;;;;;;;;;;;;;;;;;;5022405;28;19921;-83
2022/07/14 05:21:58;;;;;;;;;;;;;;;;;;5026955;28;19917;-83
2022/07/14 05:24:24;;;;;;;;;;;;;;;;;;5003304;28;19913;-83
2022/07/14 05:26:49;;;;;;;;;;;;;;;;;;5021130;28;19921;-83
2022/07/14 05:29:14;;;;;;;;;;;;;;;;;;5023267;28;19909;-83
2022/07/14 05:31:39;;;;;;;;;;;;;;;;;;5006809;28;20008;-84
2022/07/14 05:34:06;;;;;;;;;;;;;;;;;;5022981;28;20370;-83
2022/07/14 05:36:31;;;;;;;;;;;;;;;;;;5025069;28;19925;-84
2022/07/14 05:38:56;;;;;;;;;;;;;;;;;;5022677;28;19927;-84
2022/07/14 05:41:21;;;;;;;;;;;;;;;;;;5020659;28;19944;-83
2022/07/14 05:43:47;;;;;;;;;;;;;;;;;;5023481;28;20129;-85
2022/07/14 05:46:12;;;;;;;;;;;;;;;;;;5022586;28;19917;-83
2022/07/14 05:48:37;;;;;;;;;;;;;;;;;;5027821;28;19924;-83
2022/07/14 05:51:02;;;;;;;;;;;;;;;;;;5024925;28;20108;-83
2022/07/14 05:53:27;;;;;;;;;;;;;;;;;;5022744;28;19913;-83
2022/07/14 05:55:52;;;;;;;;;;;;;;;;;;5027546;28;19929;-85
2022/07/14 05:58:18;;;;;;;;;;;;;;;;;;5022730;28;20409;-84
2022/07/14 06:00:43;;;;;;;;;;;;;;;;;;5024326;28;19985;-83
2022/07/14 06:03:08;;;;;;;;;;;;;;;;;;5022259;28;19913;-83
2022/07/14 06:05:34;;;;;;;;;;;;;;;;;;5021250;28;19917;-83
2022/07/14 06:07:59;;;;;;;;;;;;;;;;;;5024879;28;19992;-84
2022/07/14 06:10:24;;;;;;;;;;;;;;;;;;5025039;28;19924;-85
2022/07/14 06:12:50;;;;;;;;;;;;;;;;;;5023164;28;20386;-84
2022/07/14 06:15:15;;;;;;;;;;;;;;;;;;5024830;28;19913;-84
2022/07/14 06:17:40;;;;;;;;;;;;;;;;;;5026768;28;19913;-83
2022/07/14 06:20:07;;;;;;;;;;;;;;;;;;5025051;28;19924;-83
2022/07/14 06:22:32;;;;;;;;;;;;;;;;;;5025161;28;20298;-85
2022/07/14 06:24:57;;;;;;;;;;;;;;;;;;5008057;28;19917;-84
2022/07/14 06:27:22;;;;;;;;;;;;;;;;;;5026136;28;20028;-83
2022/07/14 06:29:49;;;;;;;;;;;;;;;;;;5009858;28;20000;-85
2022/07/14 06:32:14;;;;;;;;;;;;;;;;;;5026672;28;19913;-84
2022/07/14 06:34:39;;;;;;;;;;;;;;;;;;5030729;28;19917;-83
2022/07/14 06:37:05;;;;;;;;;;;;;;;;;;5025151;28;19917;-86
2022/07/14 06:39:30;;;;;;;;;;;;;;;;;;5024491;28;19921;-84
2022/07/14 06:41:55;;;;;;;;;;;;;;;;;;5028986;28;20017;-84
2022/07/14 06:44:20;;;;;;;;;;;;;;;;;;5027014;28;20410;-84
2022/07/14 06:46:45;;;;;;;;;;;;;;;;;;5024727;28;20156;-83
2022/07/14 06:49:11;;;;;;;;;;;;;;;;;;5024813;28;19922;-85
2022/07/14 06:51:36;;;;;;;;;;;;;;;;;;5024757;28;21353;-84
2022/07/14 06:54:01;;;;;;;;;;;;;;;;;;5027665;28;20011;-83
2022/07/14 06:56:26;;;;;;;;;;;;;;;;;;5021987;28;19921;-84
2022/07/14 06:58:51;;;;;;;;;;;;;;;;;;5010960;28;19924;-84
2022/07/14 07:01:17;;;;;;;;;;;;;;;;;;5024266;28;19917;-85
2022/07/14 07:03:43;;;;;;;;;;;;;;;;;;5025024;28;19958;-85
2022/07/14 07:08:52;;;;;;;;;;;;;;;;;;5023355;28;20339;-84
2022/07/14 07:11:17;;;;;;;;;;;;;;;;;;5027498;28;20012;-88
2022/07/14 07:13:42;;;;;;;;;;;;;;;;;;5024605;28;19924;-84
2022/07/14 07:16:07;;;;;;;;;;;;;;;;;;5027457;28;19941;-85
2022/07/14 07:18:32;;;;;;;;;;;;;;;;;;5024066;28;20374;-83
2022/07/14 07:20:58;;;;;;;;;;;;;;;;;;5026698;28;19947;-84
2022/07/14 07:23:23;;;;;;;;;;;;;;;;;;5020809;28;20051;-85
2022/07/14 07:25:48;;;;;;;;;;;;;;;;;;5022018;28;19917;-86
2022/07/14 07:28:13;;;;;;;;;;;;;;;;;;5026604;28;19928;-83
2022/07/14 07:30:38;;;;;;;;;;;;;;;;;;5026815;28;19971;-85
2022/07/14 07:33:04;;;;;;;;;;;;;;;;;;5003181;28;19969;-84
2022/07/14 07:35:29;;;;;;;;;;;;;;;;;;5021649;28;20282;-84
2022/07/14 07:37:54;;;;;;;;;;;;;;;;;;5023566;28;19920;-85
2022/07/14 07:40:19;;;;;;;;;;;;;;;;;;5023298;28;19936;-85
2022/07/14 07:42:44;;;;;;;;;;;;;;;;;;5022174;28;19917;-84
2022/07/14 07:45:12;;;;;;;;;;;;;;;;;;5027175;28;19920;-83
2022/07/14 07:47:37;;;;;;;;;;;;;;;;;;5025104;28;20026;-84
2022/07/14 07:50:02;;;;;;;;;;;;;;;;;;5022248;28;19909;-83
2022/07/14 07:52:27;;;;;;;;;;;;;;;;;;5026993;28;20000;-83
2022/07/14 07:54:52;;;;;;;;;;;;;;;;;;5022758;28;19924;-86
2022/07/14 07:57:18;;;;;;;;;;;;;;;;;;5029308;28;19913;-83
2022/07/14 07:59:43;;;;;;;;;;;;;;;;;;5028397;28;20282;-86
2022/07/14 08:02:09;;;;;;;;;;;;;;;;;;5028339;28;19978;-85
2022/07/14 08:04:34;;;;;;;;;;;;;;;;;;5029795;28;20274;-84
2022/07/14 08:06:59;;;;;;;;;;;;;;;;;;5023998;28;20423;-84
2022/07/14 08:09:24;;;;;;;;;;;;;;;;;;5031737;28;19915;-84
2022/07/14 08:11:49;;;;;;;;;;;;;;;;;;5030464;28;19983;-87
2022/07/14 08:14:57;;;;;;;;;;;;;;;;;;5035529;28;20382;-84
2022/07/14 08:17:03;;;;;;;;;;;;;;;;;;5021649;28;19918;-83
2022/07/14 08:19:28;;;;;;;;;;;;;;;;;;5034723;28;19955;-84
2022/07/14 08:21:53;;;;;;;;;;;;;;;;;;5027385;28;19913;-85
2022/07/14 08:24:18;;;;;;;;;;;;;;;;;;5030699;28;20286;-84
2022/07/14 08:26:43;;;;;;;;;;;;;;;;;;5024119;28;19913;-84
2022/07/14 08:29:09;;;;;;;;;;;;;;;;;;5031375;28;19953;-85
2022/07/14 08:31:34;;;;;;;;;;;;;;;;;;5032594;28;20322;-84
2022/07/14 08:33:59;;;;;;;;;;;;;;;;;;5033114;28;20031;-84
2022/07/14 08:36:24;;;;;;;;;;;;;;;;;;5027209;28;19925;-84
2022/07/14 08:38:49;;;;;;;;;;;;;;;;;;5012043;28;19937;-83
2022/07/14 08:41:14;;;;;;;;;;;;;;;;;;5031413;28;20012;-85
2022/07/14 08:43:40;;;;;;;;;;;;;;;;;;5029336;28;19959;-85
2022/07/14 08:46:05;;;;;;;;;;;;;;;;;;5030454;28;19917;-84
2022/07/14 08:48:30;;;;;;;;;;;;;;;;;;5034890;28;20303;-83
2022/07/14 08:50:55;;;;;;;;;;;;;;;;;;5028169;28;20625;-84
2022/07/14 08:53:21;;;;;;;;;;;;;;;;;;5026162;28;19964;-87
2022/07/14 08:55:48;;;;;;;;;;;;;;;;;;5029610;28;20324;-84
2022/07/14 08:58:13;;;;;;;;;;;;;;;;;;5026953;28;19913;-85
2022/07/14 09:00:38;;;;;;;;;;;;;;;;;;5028677;28;19960;-87
2022/07/14 09:03:05;;;;;;;;;;;;;;;;;;5031837;28;19963;-85
2022/07/14 09:05:30;;;;;;;;;;;;;;;;;;5031315;28;19941;-85
2022/07/14 09:07:58;;;;;;;;;;;;;;;;;;5032864;28;19917;-86
2022/07/14 09:10:23;;;;;;;;;;;;;;;;;;5027995;28;20016;-87
2022/07/14 09:12:49;;;;;;;;;;;;;;;;;;5028251;28;19964;-85
2022/07/14 09:17:58;;;;;;;;;;;;;;;;;;5026560;28;19920;-85
2022/07/14 09:20:23;;;;;;;;;;;;;;;;;;5035070;28;20449;-85
2022/07/14 09:22:49;;;;;;;;;;;;;;;;;;5026223;28;21177;-84
2022/07/14 09:25:15;;;;;;;;;;;;;;;;;;5022156;28;19953;-86
2022/07/14 09:27:40;;;;;;;;;;;;;;;;;;5027749;28;19948;-85
2022/07/14 09:30:05;;;;;;;;;;;;;;;;;;5029198;28;19920;-85
2022/07/14 09:32:30;;;;;;;;;;;;;;;;;;5028899;28;20124;-85
2022/07/14 09:34:55;;;;;;;;;;;;;;;;;;5028498;28;20004;-85
2022/07/14 09:37:21;;;;;;;;;;;;;;;;;;5022340;28;19979;-85
2022/07/14 09:39:46;;;;;;;;;;;;;;;;;;5020627;28;19917;-85
2022/07/14 09:42:12;;;;;;;;;;;;;;;;;;5027427;28;19925;-86
2022/07/14 09:44:38;;;;;;;;;;;;;;;;;;5031706;28;19917;-85
2022/07/14 09:47:03;;;;;;;;;;;;;;;;;;5031361;28;19940;-84
2022/07/14 09:49:30;;;;;;;;;;;;;;;;;;5031306;28;19913;-85
2022/07/14 09:51:55;;;;;;;;;;;;;;;;;;5027904;28;19913;-86
2022/07/14 09:54:20;;;;;;;;;;;;;;;;;;5021446;28;20337;-85
2022/07/14 09:56:45;;;;;;;;;;;;;;;;;;5028891;28;19924;-85
2022/07/14 09:59:10;;;;;;;;;;;;;;;;;;5021723;28;20365;-84
2022/07/14 10:01:35;;;;;;;;;;;;;;;;;;5023728;28;19917;-85
2022/07/14 10:04:01;;;;;;;;;;;;;;;;;;5024796;28;19927;-86
2022/07/14 10:06:27;;;;;;;;;;;;;;;;;;5023082;28;20314;-85
2022/07/14 10:08:53;;;;;;;;;;;;;;;;;;5026343;28;20005;-85
2022/07/14 10:11:18;;;;;;;;;;;;;;;;;;5032258;28;19952;-84
2022/07/14 10:13:43;;;;;;;;;;;;;;;;;;5027987;28;19917;-83
2022/07/14 10:16:08;;;;;;;;;;;;;;;;;;5034211;28;19973;-84
2022/07/14 10:18:33;;;;;;;;;;;;;;;;;;5025169;28;19996;-85
2022/07/14 10:20:58;;;;;;;;;;;;;;;;;;5023886;28;19917;-85
2022/07/14 10:23:24;;;;;;;;;;;;;;;;;;5023515;28;19971;-84
2022/07/14 10:25:49;;;;;;;;;;;;;;;;;;5022961;28;19967;-85
2022/07/14 10:28:15;;;;;;;;;;;;;;;;;;5029711;28;20036;-87
2022/07/14 10:30:40;;;;;;;;;;;;;;;;;;5026319;28;19917;-84
2022/07/14 10:33:06;;;;;;;;;;;;;;;;;;5027292;28;19922;-85
2022/07/14 10:35:32;;;;;;;;;;;;;;;;;;5040129;23;19913;-82
2022/07/14 10:37:57;;;;;;;;;;;;;;;;;;5025688;28;19913;-83
2022/07/14 10:40:22;;;;;;;;;;;;;;;;;;5022495;28;20370;-83
2022/07/14 10:42:50;;;;;;;;;;;;;;;;;;5014904;28;20020;-83
2022/07/14 10:45:16;;;;;;;;;;;;;;;;;;5012438;28;20626;-83
2022/07/14 10:47:41;;;;;;;;;;;;;;;;;;4996250;28;19957;-84
2022/07/14 10:50:07;;;;;;;;;;;;;;;;;;4997965;28;20402;-84
2022/07/14 10:52:32;;;;;;;;;;;;;;;;;;4995587;28;19918;-84
2022/07/14 10:54:57;;;;;;;;;;;;;;;;;;4996462;28;19918;-83
2022/07/14 10:57:22;;;;;;;;;;;;;;;;;;5003959;28;19918;-81
2022/07/14 10:59:47;;;;;;;;;;;;;;;;;;4995147;28;20538;-81
2022/07/14 11:02:13;;;;;;;;;;;;;;;;;;4996697;28;19930;-81
2022/07/14 11:04:38;;;;;;;;;;;;;;;;;;4997362;28;19922;-82
2022/07/14 11:07:03;;;;;;;;;;;;;;;;;;4992905;28;19949;-81
2022/07/14 11:09:29;;;;;;;;;;;;;;;;;;5004456;28;20197;-81
2022/07/14 11:11:54;;;;;;;;;;;;;;;;;;5007008;28;19917;-81
2022/07/14 11:14:19;;;;;;;;;;;;;;;;;;4996291;28;19921;-84
2022/07/14 11:16:44;;;;;;;;;;;;;;;;;;4997475;28;20397;-83
2022/07/14 11:19:10;;;;;;;;;;;;;;;;;;4995009;28;19933;-82
2022/07/14 11:21:35;;;;;;;;;;;;;;;;;;4996540;28;19918;-81
2022/07/14 11:24:00;;;;;;;;;;;;;;;;;;4995892;28;20399;-82
2022/07/14 11:26:25;;;;;;;;;;;;;;;;;;4994061;28;19925;-82
2022/07/14 11:28:50;;;;;;;;;;;;;;;;;;4996289;28;20272;-82
2022/07/14 11:31:16;;;;;;;;;;;;;;;;;;4995571;28;19918;-82
2022/07/14 11:36:17;;;;;;;;;;;;;;;;;;4999374;28;19921;-82
2022/07/14 11:36:26;;;;;;;;;;;;;;;;;;4994736;28;19929;-82
2022/07/14 11:38:51;;;;;;;;;;;;;;;;;;4997781;28;19914;-81
2022/07/14 11:41:16;;;;;;;;;;;;;;;;;;4991982;28;20432;-82
2022/07/14 11:43:41;;;;;;;;;;;;;;;;;;4989634;28;19921;-82
2022/07/14 11:46:07;;;;;;;;;;;;;;;;;;4997327;28;20338;-82
2022/07/14 11:48:32;;;;;;;;;;;;;;;;;;4998041;28;20343;-82
2022/07/14 11:50:57;;;;;;;;;;;;;;;;;;4995894;28;19971;-82
2022/07/14 11:53:22;;;;;;;;;;;;;;;;;;4997574;28;19918;-82
2022/07/14 11:55:48;;;;;;;;;;;;;;;;;;4998414;28;19917;-81
2022/07/14 11:58:13;;;;;;;;;;;;;;;;;;4998938;28;19922;-81
2022/07/14 12:00:38;;;;;;;;;;;;;;;;;;4998423;28;19925;-82
2022/07/14 12:03:04;;;;;;;;;;;;;;;;;;4998522;28;19914;-82
2022/07/14 12:05:30;;;;;;;;;;;;;;;;;;4998001;28;20418;-81
2022/07/14 12:07:56;;;;;;;;;;;;;;;;;;4996188;28;19932;-81
2022/07/14 12:10:21;;;;;;;;;;;;;;;;;;4994562;28;20000;-81
2022/07/14 12:12:47;;;;;;;;;;;;;;;;;;4996748;28;19921;-81
2022/07/14 12:15:12;;;;;;;;;;;;;;;;;;4992009;28;19940;-81
2022/07/14 12:17:38;;;;;;;;;;;;;;;;;;4995363;28;19920;-81
2022/07/14 12:20:03;;;;;;;;;;;;;;;;;;4992896;28;19921;-81
2022/07/14 12:22:28;;;;;;;;;;;;;;;;;;4995407;28;19921;-81
2022/07/14 12:24:53;;;;;;;;;;;;;;;;;;4996328;28;19924;-82
2022/07/14 12:27:18;;;;;;;;;;;;;;;;;;4990555;28;19917;-82
2022/07/14 12:29:43;;;;;;;;;;;;;;;;;;4993548;28;19937;-82
2022/07/14 12:32:09;;;;;;;;;;;;;;;;;;4992086;28;19924;-82
2022/07/14 12:34:34;;;;;;;;;;;;;;;;;;4996113;28;19921;-82
2022/07/14 12:36:59;;;;;;;;;;;;;;;;;;4997116;28;19972;-82
2022/07/14 12:39:24;;;;;;;;;;;;;;;;;;4995945;28;19971;-81
2022/07/14 12:41:50;;;;;;;;;;;;;;;;;;4995169;28;20484;-81
2022/07/14 12:44:15;;;;;;;;;;;;;;;;;;4991326;28;19910;-81
2022/07/14 12:46:40;;;;;;;;;;;;;;;;;;4996583;28;20008;-82
2022/07/14 12:49:05;;;;;;;;;;;;;;;;;;4994123;28;19952;-82
2022/07/14 12:51:31;;;;;;;;;;;;;;;;;;4990311;28;20024;-82
2022/07/14 12:53:56;;;;;;;;;;;;;;;;;;4994357;28;19914;-82
2022/07/14 12:56:22;;;;;;;;;;;;;;;;;;4993510;28;19918;-81
2022/07/14 12:58:47;;;;;;;;;;;;;;;;;;4993908;28;20306;-81
2022/07/14 13:01:12;;;;;;;;;;;;;;;;;;4993966;28;20239;-81
2022/07/14 13:03:38;;;;;;;;;;;;;;;;;;4997081;28;20401;-81
2022/07/14 13:06:03;;;;;;;;;;;;;;;;;;4995975;28;20008;-81
2022/07/14 13:08:28;;;;;;;;;;;;;;;;;;4997994;28;20303;-81
2022/07/14 13:10:53;;;;;;;;;;;;;;;;;;4994012;28;19913;-81
2022/07/14 13:13:18;;;;;;;;;;;;;;;;;;4990132;28;19917;-81
2022/07/14 13:15:43;;;;;;;;;;;;;;;;;;4992845;28;19921;-81
2022/07/14 13:18:09;;;;;;;;;;;;;;;;;;4999760;28;19937;-81
2022/07/14 13:20:34;;;;;;;;;;;;;;;;;;4995034;28;19921;-81
2022/07/14 13:22:59;;;;;;;;;;;;;;;;;;5000376;28;19920;-81
2022/07/14 13:25:24;;;;;;;;;;;;;;;;;;4994010;28;19914;-82
2022/07/14 13:27:49;;;;;;;;;;;;;;;;;;4998420;28;20380;-82
2022/07/14 13:30:14;;;;;;;;;;;;;;;;;;4998323;28;19928;-82
2022/07/14 13:32:39;;;;;;;;;;;;;;;;;;4999248;28;20007;-81
2022/07/14 13:35:05;;;;;;;;;;;;;;;;;;4998507;28;19914;-81
2022/07/14 13:37:30;;;;;;;;;;;;;;;;;;4997686;28;19992;-81
2022/07/14 13:39:55;;;;;;;;;;;;;;;;;;5001833;28;20418;-82
2022/07/14 13:42:20;;;;;;;;;;;;;;;;;;4998265;28;19918;-82
2022/07/14 13:44:45;;;;;;;;;;;;;;;;;;5000570;28;20359;-81
2022/07/14 13:47:11;;;;;;;;;;;;;;;;;;4996480;28;19917;-81
2022/07/14 13:52:20;;;;;;;;;;;;;;;;;;4995200;28;20009;-81
2022/07/14 13:54:45;;;;;;;;;;;;;;;;;;5000034;28;20000;-81
2022/07/14 13:57:10;;;;;;;;;;;;;;;;;;4999271;28;19921;-81
2022/07/14 13:59:37;;;;;;;;;;;;;;;;;;4998349;28;20004;-81
2022/07/14 14:02:02;;;;;;;;;;;;;;;;;;4996050;28;19914;-82
2022/07/14 14:04:27;;;;;;;;;;;;;;;;;;4997914;28;19920;-83
2022/07/14 14:06:53;;;;;;;;;;;;;;;;;;4997551;28;20502;-83
2022/07/14 14:09:18;;;;;;;;;;;;;;;;;;4999653;28;20379;-83
2022/07/14 14:11:44;;;;;;;;;;;;;;;;;;4997657;28;20391;-82
2022/07/14 14:14:09;;;;;;;;;;;;;;;;;;4998182;28;19964;-82
2022/07/14 14:16:34;;;;;;;;;;;;;;;;;;4997472;28;19920;-83
2022/07/14 14:18:59;;;;;;;;;;;;;;;;;;4995770;28;19926;-83
2022/07/14 14:21:24;;;;;;;;;;;;;;;;;;4997776;28;19957;-83
2022/07/14 14:23:49;;;;;;;;;;;;;;;;;;4995258;28;20531;-83
2022/07/14 14:26:15;;;;;;;;;;;;;;;;;;4992117;28;19917;-83
2022/07/14 14:28:40;;;;;;;;;;;;;;;;;;4995674;28;20056;-83
2022/07/14 14:31:05;;;;;;;;;;;;;;;;;;5000639;28;19909;-82
2022/07/14 14:33:30;;;;;;;;;;;;;;;;;;4998873;28;19921;-83
2022/07/14 14:35:55;;;;;;;;;;;;;;;;;;4997699;28;19914;-83
2022/07/14 14:38:21;;;;;;;;;;;;;;;;;;4995990;28;19921;-82
2022/07/14 14:40:46;;;;;;;;;;;;;;;;;;4994945;28;20282;-82
2022/07/14 14:43:12;;;;;;;;;;;;;;;;;;4994809;28;19913;-83
2022/07/14 14:45:37;;;;;;;;;;;;;;;;;;4998764;28;20092;-82
2022/07/14 14:48:03;;;;;;;;;;;;;;;;;;5003872;28;19913;-82
2022/07/14 14:50:28;;;;;;;;;;;;;;;;;;4994169;28;20299;-83
2022/07/14 14:52:55;;;;;;;;;;;;;;;;;;4997476;28;20676;-83
2022/07/14 14:55:20;;;;;;;;;;;;;;;;;;5000424;28;20386;-82
2022/07/14 14:57:46;;;;;;;;;;;;;;;;;;4985674;28;20359;-82
2022/07/14 15:00:11;;;;;;;;;;;;;;;;;;4995285;28;19921;-82
2022/07/14 15:02:36;;;;;;;;;;;;;;;;;;4993240;28;20380;-83
2022/07/14 15:05:01;;;;;;;;;;;;;;;;;;4992370;28;19917;-83
2022/07/14 15:07:26;;;;;;;;;;;;;;;;;;5001049;28;19913;-83
2022/07/14 15:09:53;;;;;;;;;;;;;;;;;;4999537;28;19918;-82
2022/07/14 15:12:18;;;;;;;;;;;;;;;;;;4997211;28;19980;-81
2022/07/14 15:14:43;;;;;;;;;;;;;;;;;;4999385;28;19918;-82
2022/07/14 15:17:08;;;;;;;;;;;;;;;;;;4994917;28;19918;-82
2022/07/14 15:19:33;;;;;;;;;;;;;;;;;;4998809;28;19924;-83
2022/07/14 15:21:58;;;;;;;;;;;;;;;;;;4993479;28;20427;-82
2022/07/14 15:24:24;;;;;;;;;;;;;;;;;;4994865;28;19989;-82
2022/07/14 15:26:49;;;;;;;;;;;;;;;;;;4994415;28;19913;-82
2022/07/14 15:29:19;;;;;;;;;;;;;;;;;;4994056;28;19924;-82
2022/07/14 15:31:44;;;;;;;;;;;;;;;;;;4998497;28;20126;-82
2022/07/14 15:34:09;;;;;;;;;;;;;;;;;;4997059;28;19921;-82
2022/07/14 15:36:35;;;;;;;;;;;;;;;;;;4930654;28;1928616;-82
2022/07/14 15:41:45;;;;;;;;;;;;;;;;;;5003729;28;19924;-82
2022/07/14 15:44:10;;;;;;;;;;;;;;;;;;4991828;28;19918;-82
2022/07/14 15:46:35;;;;;;;;;;;;;;;;;;5002235;28;19957;-82
2022/07/14 15:49:00;;;;;;;;;;;;;;;;;;4993241;28;20077;-82
2022/07/14 15:51:26;;;;;;;;;;;;;;;;;;4997982;28;20318;-82
2022/07/14 15:53:51;;;;;;;;;;;;;;;;;;4994636;28;20197;-82
2022/07/14 15:56:16;;;;;;;;;;;;;;;;;;5000381;28;19972;-82
2022/07/14 15:58:41;;;;;;;;;;;;;;;;;;4994882;28;20406;-82
2022/07/14 16:01:06;;;;;;;;;;;;;;;;;;4994072;28;20343;-83
2022/07/14 16:03:32;;;;;;;;;;;;;;;;;;4995578;28;19957;-82
2022/07/14 16:05:57;;;;;;;;;;;;;;;;;;4996007;28;20291;-82
2022/07/14 16:08:22;;;;;;;;;;;;;;;;;;4993404;28;20005;-82
2022/07/14 16:10:47;;;;;;;;;;;;;;;;;;4996165;28;19918;-82
2022/07/14 16:13:12;;;;;;;;;;;;;;;;;;4996077;28;20446;-82
2022/07/14 16:15:37;;;;;;;;;;;;;;;;;;4994541;28;19918;-82
2022/07/14 16:18:03;;;;;;;;;;;;;;;;;;4995010;28;19918;-82
2022/07/14 16:20:29;;;;;;;;;;;;;;;;;;4996878;28;19924;-82
2022/07/14 16:22:54;;;;;;;;;;;;;;;;;;5000044;28;19914;-82
2022/07/14 16:25:19;;;;;;;;;;;;;;;;;;4997415;28;20390;-82
2022/07/14 16:27:44;;;;;;;;;;;;;;;;;;4998849;28;19914;-82
2022/07/14 16:30:10;;;;;;;;;;;;;;;;;;4995017;28;19918;-83
2022/07/14 16:32:35;;;;;;;;;;;;;;;;;;5002650;28;19920;-83
2022/07/14 16:35:00;;;;;;;;;;;;;;;;;;4997572;28;19983;-82
2022/07/14 16:37:25;;;;;;;;;;;;;;;;;;5003466;28;19917;-82
2022/07/14 16:39:50;;;;;;;;;;;;;;;;;;4997762;28;19922;-82
2022/07/14 16:42:16;;;;;;;;;;;;;;;;;;4998988;28;20021;-82
2022/07/14 16:44:41;;;;;;;;;;;;;;;;;;4995275;28;20374;-81
2022/07/14 16:47:09;;;;;;;;;;;;;;;;;;4996836;28;20009;-81
2022/07/14 16:49:34;;;;;;;;;;;;;;;;;;4995375;28;19914;-81